Portada
METAR-TAF:

METAR-TAF

Aeroports :

Jammu, Índia

latitud: 32-41-21N, longitud: 74-50-15E, altitud: 314 m

METAR: manca

Hora: 02:12 (20:42 UTC)

Pronòstic

L'informe es va fer fa 11 hores i 12 minuts, a les 09:30 UTC
Pronòstic vàlid del 26 a les 18 UTC al 27 a les 12 UTC
Vent 5 kt del Nord-Oest
Visibilitat: 4000 m
Escasses núvols a una alçada de 2500 ft
boirina
Temporalment
l' 27 a les 01 UTC al 27 a les 05 UTC
Vent 5 kt del Sud/Sud-Est
Visibilitat: 0800 m
boira
Evolucionant progressivament
l' 27 a les 06 UTC al 27 a les 08 UTC
Vent 5 kt del Oest/Sud-Oest
Visibilitat: 6000 m
Núvols disperses a una alçada de 2500 ft

TAF: VIJU 260930Z 2618/2712 32005KT 4000 BR FEW025 TEMPO 2701/2705 16005KT 0800 FG BECMG 2706/2708 25005KT 6000 SCT025

Observacions i pronòstics meteorològics de més de 4000 aeroports (METAR i TAF).

Les estacions disponibles són els punts grocs i vermells al mapa.

Posi el ratolí al punt desitjat per veure el nom de l'estació.

Feu clic per veure les observacions i els pronòstics meteorològics.

Per canviar el mapa: feu clic els botons verds amb una creu de color negre per apropar; al botó verd amb un guió per allunyar la imatge; o en les fletxes verdes per a mapes adjacents.


METAR-TAF: